Airfield :
LOGIN :

Register | Disclaimer

   EN    FR    IT 

 










Legend :    VFR   Marginal VFR   IFR   Intensive IFR   Very Intensive IFR
Visi :
Ceiling :
>= 8 km
>= 3000ft
5 to 8 km
1000 to 3000 ft
1500m to 5 km
500 to 1000 ft
800 to 1500m
200 to 500 ft
< 800m
< 200 ft
Symbols :   Thunderstorms  Fog  Heavy snow  Heavy precipitations  Wind > 20 kt
SIGMETs :     Misc.  Thunderstorms  Icing  Turbulence  Mountain Waves  Volcanic Ashes






- Airport Elevation : 100 ft


EBDT - Schaffen

CURRENT METAR :
  • 200343Z AUTO 20009KT 9999 FEW014/// BKN049/// BKN240/// 08/06 Q1017 BLU

EXPIRED METARs :
  • 200255Z AUTO 20009KT 9999 SCT014/// BKN018/// BKN110/// 08/06 Q1017 GRN
  • 200225Z AUTO 20010KT 9999 SCT014/// OVC100/// 08/06 Q1017 GRN
  • 200155Z AUTO 20011KT 9999 FEW013/// BKN080/// OVC170/// 08/06 Q1018 BLU
  • 200125Z AUTO 20009KT 9999 FEW013/// SCT055/// BKN080/// 07/05 Q1018 BLU

TAF TAF EBDT
Valid from the 19 at 19:00 until the 20 at 07:00 UTC


191541Z 1919/2007 21008KT 9999 BKN035
BECMG 1919/1921 7000 -RA FEW015 OVC025
TEMPO 1922/2004 20008G18KT 4500 RADZ SCT010 BKN016
BECMG 2004/2006 5000 BR -DZ BKN010



MET'MAP, your aeronautical weather chart ! - Copyright ORBIFLY December 2007 - Disclaimer

ORBIFLY MET'MAP TEAM :

Programming & Development : Alexandra Zaïnal
Concept & original design : Baudouin d'Aumeries
Assistance for programming : Marc-Olivier Méhu
Technical & hardware support : Manuel Goepfert

Contact : metmap@orbifly.com




SOURCES & CREDITS :

   NOAA